Terminal Aerodrome Forecast
Issued by NWS Cleveland, OH

Home | Current Version | Previous Version | Graphics & Text | Print | Product List | Glossary Off
Versions: 1 2 3 4 5 6 7 8 9 10 11 12 13 14 15 16 17

963
FTUS41 KCLE 240755 AAB
TAFERI
TAF AMD
KERI 240755Z 2408/2506 05009KT 4SM BR VCSH SCT005 BKN050
      TEMPO 2408/2411 2SM -SHRA BR BKN005
     FM241100 13009KT 6SM BR SCT015 OVC040
      TEMPO 2411/2414 3SM -SHRA BR BKN015
     FM241500 18014G24KT P6SM SCT025 BKN100
     FM242100 19014KT P6SM SCT050 BKN200=

USA.gov is the U.S. government's official web portal to all federal, state and local government web resources and services.